sensor_id;sensor_type;location;lat;lon;timestamp;P1;durP1;ratioP1;P2;durP2;ratioP2
72891;SDS011;61032;50.782;6.818;2022-08-14T00:00:56;6.07;;;3.65;;
72891;SDS011;61032;50.782;6.818;2022-08-14T00:02:01;5.00;;;3.00;;
72891;SDS011;61032;50.782;6.818;2022-08-14T00:03:03;5.93;;;3.10;;
72891;SDS011;61032;50.782;6.818;2022-08-14T00:04:03;6.18;;;3.80;;
72891;SDS011;61032;50.782;6.818;2022-08-14T00:05:05;5.53;;;3.53;;
72891;SDS011;61032;50.782;6.818;2022-08-14T00:06:08;5.07;;;3.50;;
72891;SDS011;61032;50.782;6.818;2022-08-14T00:07:09;5.78;;;3.10;;
72891;SDS011;61032;50.782;6.818;2022-08-14T00:08:10;4.90;;;3.42;;
72891;SDS011;61032;50.782;6.818;2022-08-14T00:09:10;5.45;;;3.53;;
72891;SDS011;61032;50.782;6.818;2022-08-14T00:10:12;4.22;;;3.38;;
72891;SDS011;61032;50.782;6.818;2022-08-14T00:11:15;6.03;;;3.38;;
72891;SDS011;61032;50.782;6.818;2022-08-14T00:12:15;5.10;;;3.33;;
72891;SDS011;61032;50.782;6.818;2022-08-14T00:13:17;6.95;;;3.90;;
72891;SDS011;61032;50.782;6.818;2022-08-14T00:14:18;6.93;;;4.68;;
72891;SDS011;61032;50.782;6.818;2022-08-14T00:15:21;7.47;;;4.25;;
72891;SDS011;61032;50.782;6.818;2022-08-14T00:16:21;8.13;;;4.35;;
72891;SDS011;61032;50.782;6.818;2022-08-14T00:17:22;6.40;;;4.65;;
72891;SDS011;61032;50.782;6.818;2022-08-14T00:18:24;6.80;;;4.70;;
72891;SDS011;61032;50.782;6.818;2022-08-14T00:19:25;7.78;;;5.07;;
72891;SDS011;61032;50.782;6.818;2022-08-14T00:20:27;8.65;;;4.85;;
72891;SDS011;61032;50.782;6.818;2022-08-14T00:21:30;6.53;;;4.38;;
72891;SDS011;61032;50.782;6.818;2022-08-14T00:22:31;6.85;;;4.30;;
72891;SDS011;61032;50.782;6.818;2022-08-14T00:23:31;9.90;;;4.60;;
72891;SDS011;61032;50.782;6.818;2022-08-14T00:24:31;7.35;;;3.80;;
72891;SDS011;61032;50.782;6.818;2022-08-14T00:25:32;8.15;;;4.20;;
72891;SDS011;61032;50.782;6.818;2022-08-14T00:26:32;5.95;;;4.43;;
72891;SDS011;61032;50.782;6.818;2022-08-14T00:27:33;6.35;;;3.92;;
72891;SDS011;61032;50.782;6.818;2022-08-14T00:28:34;6.68;;;3.97;;
72891;SDS011;61032;50.782;6.818;2022-08-14T00:29:34;5.78;;;3.63;;
72891;SDS011;61032;50.782;6.818;2022-08-14T00:30:35;5.93;;;3.63;;
72891;SDS011;61032;50.782;6.818;2022-08-14T00:31:36;7.05;;;4.43;;
72891;SDS011;61032;50.782;6.818;2022-08-14T00:32:37;7.93;;;5.53;;
72891;SDS011;61032;50.782;6.818;2022-08-14T00:33:37;7.15;;;5.20;;
72891;SDS011;61032;50.782;6.818;2022-08-14T00:34:38;9.75;;;4.60;;
72891;SDS011;61032;50.782;6.818;2022-08-14T00:35:38;10.63;;;5.00;;
72891;SDS011;61032;50.782;6.818;2022-08-14T00:36:38;8.68;;;5.40;;
72891;SDS011;61032;50.782;6.818;2022-08-14T00:37:39;8.32;;;5.25;;
72891;SDS011;61032;50.782;6.818;2022-08-14T00:38:42;9.15;;;6.55;;
72891;SDS011;61032;50.782;6.818;2022-08-14T00:39:42;9.75;;;5.80;;
72891;SDS011;61032;50.782;6.818;2022-08-14T00:40:43;8.00;;;5.35;;
72891;SDS011;61032;50.782;6.818;2022-08-14T00:41:45;9.77;;;6.40;;
72891;SDS011;61032;50.782;6.818;2022-08-14T00:42:47;9.15;;;5.80;;
72891;SDS011;61032;50.782;6.818;2022-08-14T00:43:48;9.45;;;5.90;;
72891;SDS011;61032;50.782;6.818;2022-08-14T00:44:48;8.75;;;5.30;;
72891;SDS011;61032;50.782;6.818;2022-08-14T00:45:49;9.60;;;5.38;;
72891;SDS011;61032;50.782;6.818;2022-08-14T00:46:49;8.30;;;5.47;;
72891;SDS011;61032;50.782;6.818;2022-08-14T00:47:50;7.22;;;5.53;;
72891;SDS011;61032;50.782;6.818;2022-08-14T00:48:50;8.85;;;5.80;;
72891;SDS011;61032;50.782;6.818;2022-08-14T00:49:51;9.40;;;6.70;;
72891;SDS011;61032;50.782;6.818;2022-08-14T00:50:55;9.38;;;5.63;;
72891;SDS011;61032;50.782;6.818;2022-08-14T00:51:55;9.68;;;6.18;;
72891;SDS011;61032;50.782;6.818;2022-08-14T00:52:56;11.15;;;6.78;;
72891;SDS011;61032;50.782;6.818;2022-08-14T00:53:59;7.25;;;5.32;;
72891;SDS011;61032;50.782;6.818;2022-08-14T00:55:02;7.88;;;5.78;;
72891;SDS011;61032;50.782;6.818;2022-08-14T00:56:05;8.07;;;4.78;;
72891;SDS011;61032;50.782;6.818;2022-08-14T00:57:06;6.45;;;5.03;;
72891;SDS011;61032;50.782;6.818;2022-08-14T00:58:07;8.18;;;4.40;;
72891;SDS011;61032;50.782;6.818;2022-08-14T00:59:26;6.25;;;3.63;;
72891;SDS011;61032;50.782;6.818;2022-08-14T01:00:27;7.72;;;5.00;;
72891;SDS011;61032;50.782;6.818;2022-08-14T01:01:27;8.75;;;4.63;;
72891;SDS011;61032;50.782;6.818;2022-08-14T01:02:28;6.82;;;4.93;;
72891;SDS011;61032;50.782;6.818;2022-08-14T01:03:29;6.93;;;5.47;;
72891;SDS011;61032;50.782;6.818;2022-08-14T01:04:29;7.75;;;4.47;;
72891;SDS011;61032;50.782;6.818;2022-08-14T01:05:32;5.90;;;3.90;;
72891;SDS011;61032;50.782;6.818;2022-08-14T01:06:34;8.15;;;4.70;;
72891;SDS011;61032;50.782;6.818;2022-08-14T01:07:34;5.97;;;4.28;;
72891;SDS011;61032;50.782;6.818;2022-08-14T01:08:36;5.78;;;3.90;;
72891;SDS011;61032;50.782;6.818;2022-08-14T01:09:38;7.47;;;4.78;;
72891;SDS011;61032;50.782;6.818;2022-08-14T01:10:39;8.70;;;4.60;;
72891;SDS011;61032;50.782;6.818;2022-08-14T01:11:52;9.88;;;4.95;;
72891;SDS011;61032;50.782;6.818;2022-08-14T01:12:52;4.93;;;3.90;;
72891;SDS011;61032;50.782;6.818;2022-08-14T01:13:53;5.38;;;3.97;;
72891;SDS011;61032;50.782;6.818;2022-08-14T01:15:00;6.18;;;4.32;;
72891;SDS011;61032;50.782;6.818;2022-08-14T01:16:02;7.03;;;3.90;;
72891;SDS011;61032;50.782;6.818;2022-08-14T01:17:06;7.10;;;4.10;;
72891;SDS011;61032;50.782;6.818;2022-08-14T01:18:06;5.95;;;4.53;;
72891;SDS011;61032;50.782;6.818;2022-08-14T01:19:25;6.22;;;4.63;;
72891;SDS011;61032;50.782;6.818;2022-08-14T01:20:44;6.15;;;3.90;;
72891;SDS011;61032;50.782;6.818;2022-08-14T01:22:03;5.50;;;3.92;;
72891;SDS011;61032;50.782;6.818;2022-08-14T01:23:15;4.82;;;4.05;;
72891;SDS011;61032;50.782;6.818;2022-08-14T01:24:15;5.03;;;4.03;;
72891;SDS011;61032;50.782;6.818;2022-08-14T01:25:16;5.97;;;4.15;;
72891;SDS011;61032;50.782;6.818;2022-08-14T01:26:17;5.22;;;4.72;;
72891;SDS011;61032;50.782;6.818;2022-08-14T01:27:21;6.50;;;4.22;;
72891;SDS011;61032;50.782;6.818;2022-08-14T01:28:22;6.18;;;4.15;;
72891;SDS011;61032;50.782;6.818;2022-08-14T01:29:25;5.32;;;4.15;;
72891;SDS011;61032;50.782;6.818;2022-08-14T01:30:27;4.28;;;3.88;;
72891;SDS011;61032;50.782;6.818;2022-08-14T01:31:32;5.97;;;4.05;;
72891;SDS011;61032;50.782;6.818;2022-08-14T01:32:36;4.15;;;3.33;;
72891;SDS011;61032;50.782;6.818;2022-08-14T01:33:38;4.72;;;3.97;;
72891;SDS011;61032;50.782;6.818;2022-08-14T01:34:46;4.85;;;3.30;;
72891;SDS011;61032;50.782;6.818;2022-08-14T01:35:52;3.97;;;3.58;;
72891;SDS011;61032;50.782;6.818;2022-08-14T01:37:00;4.45;;;3.88;;
72891;SDS011;61032;50.782;6.818;2022-08-14T01:38:02;5.38;;;3.83;;
72891;SDS011;61032;50.782;6.818;2022-08-14T01:39:04;4.13;;;3.67;;
72891;SDS011;61032;50.782;6.818;2022-08-14T01:40:09;4.15;;;3.75;;
72891;SDS011;61032;50.782;6.818;2022-08-14T01:41:12;6.13;;;4.25;;
72891;SDS011;61032;50.782;6.818;2022-08-14T01:42:15;5.28;;;3.95;;
72891;SDS011;61032;50.782;6.818;2022-08-14T01:43:15;4.68;;;3.88;;
72891;SDS011;61032;50.782;6.818;2022-08-14T01:44:16;4.07;;;3.70;;
72891;SDS011;61032;50.782;6.818;2022-08-14T01:45:17;4.03;;;3.58;;
72891;SDS011;61032;50.782;6.818;2022-08-14T01:46:18;4.15;;;3.75;;
72891;SDS011;61032;50.782;6.818;2022-08-14T01:47:20;5.55;;;4.18;;
72891;SDS011;61032;50.782;6.818;2022-08-14T01:48:21;4.22;;;3.25;;
72891;SDS011;61032;50.782;6.818;2022-08-14T01:49:22;5.05;;;3.10;;
72891;SDS011;61032;50.782;6.818;2022-08-14T01:50:23;5.25;;;3.33;;
72891;SDS011;61032;50.782;6.818;2022-08-14T01:51:24;5.45;;;4.10;;
72891;SDS011;61032;50.782;6.818;2022-08-14T01:52:33;4.95;;;3.22;;
72891;SDS011;61032;50.782;6.818;2022-08-14T01:53:36;3.85;;;3.50;;
72891;SDS011;61032;50.782;6.818;2022-08-14T01:54:38;5.97;;;4.18;;
72891;SDS011;61032;50.782;6.818;2022-08-14T01:55:38;5.22;;;4.43;;
72891;SDS011;61032;50.782;6.818;2022-08-14T01:56:39;4.78;;;3.60;;
72891;SDS011;61032;50.782;6.818;2022-08-14T01:57:43;4.82;;;3.97;;
72891;SDS011;61032;50.782;6.818;2022-08-14T01:58:45;4.25;;;3.80;;
72891;SDS011;61032;50.782;6.818;2022-08-14T01:59:48;4.70;;;3.60;;
72891;SDS011;61032;50.782;6.818;2022-08-14T02:00:49;5.03;;;4.25;;
72891;SDS011;61032;50.782;6.818;2022-08-14T02:01:54;3.92;;;3.53;;
72891;SDS011;61032;50.782;6.818;2022-08-14T02:02:56;4.35;;;3.50;;
72891;SDS011;61032;50.782;6.818;2022-08-14T02:03:57;4.50;;;3.40;;
72891;SDS011;61032;50.782;6.818;2022-08-14T02:04:57;6.38;;;3.63;;
72891;SDS011;61032;50.782;6.818;2022-08-14T02:06:00;5.07;;;3.35;;
72891;SDS011;61032;50.782;6.818;2022-08-14T02:07:02;4.55;;;3.40;;
72891;SDS011;61032;50.782;6.818;2022-08-14T02:08:04;5.88;;;3.15;;
72891;SDS011;61032;50.782;6.818;2022-08-14T02:09:06;4.47;;;3.95;;
72891;SDS011;61032;50.782;6.818;2022-08-14T02:10:07;6.05;;;4.50;;
72891;SDS011;61032;50.782;6.818;2022-08-14T02:11:09;5.53;;;3.53;;
72891;SDS011;61032;50.782;6.818;2022-08-14T02:12:21;5.93;;;4.47;;
72891;SDS011;61032;50.782;6.818;2022-08-14T02:13:23;4.88;;;4.03;;
72891;SDS011;61032;50.782;6.818;2022-08-14T02:14:23;4.22;;;3.83;;
72891;SDS011;61032;50.782;6.818;2022-08-14T02:15:24;4.65;;;4.07;;
72891;SDS011;61032;50.782;6.818;2022-08-14T02:16:26;4.88;;;3.45;;
72891;SDS011;61032;50.782;6.818;2022-08-14T02:17:35;5.35;;;4.20;;
72891;SDS011;61032;50.782;6.818;2022-08-14T02:18:36;4.53;;;3.33;;
72891;SDS011;61032;50.782;6.818;2022-08-14T02:19:37;4.75;;;3.58;;
72891;SDS011;61032;50.782;6.818;2022-08-14T02:20:37;5.03;;;4.15;;
72891;SDS011;61032;50.782;6.818;2022-08-14T02:21:38;4.03;;;3.22;;
72891;SDS011;61032;50.782;6.818;2022-08-14T02:22:39;6.00;;;4.32;;
72891;SDS011;61032;50.782;6.818;2022-08-14T02:23:39;5.15;;;3.75;;
72891;SDS011;61032;50.782;6.818;2022-08-14T02:24:40;4.60;;;4.18;;
72891;SDS011;61032;50.782;6.818;2022-08-14T02:25:40;5.28;;;4.78;;
72891;SDS011;61032;50.782;6.818;2022-08-14T02:26:42;5.18;;;4.68;;
72891;SDS011;61032;50.782;6.818;2022-08-14T02:27:46;6.03;;;4.40;;
72891;SDS011;61032;50.782;6.818;2022-08-14T02:28:48;5.60;;;3.35;;
72891;SDS011;61032;50.782;6.818;2022-08-14T02:29:51;5.40;;;4.10;;
72891;SDS011;61032;50.782;6.818;2022-08-14T02:30:55;4.55;;;3.33;;
72891;SDS011;61032;50.782;6.818;2022-08-14T02:31:57;4.25;;;3.40;;
72891;SDS011;61032;50.782;6.818;2022-08-14T02:32:58;5.53;;;3.10;;
72891;SDS011;61032;50.782;6.818;2022-08-14T02:34:04;4.65;;;3.17;;
72891;SDS011;61032;50.782;6.818;2022-08-14T02:35:17;4.88;;;4.28;;
72891;SDS011;61032;50.782;6.818;2022-08-14T02:36:17;5.13;;;3.35;;
72891;SDS011;61032;50.782;6.818;2022-08-14T02:37:18;4.45;;;3.47;;
72891;SDS011;61032;50.782;6.818;2022-08-14T02:38:18;4.20;;;3.28;;
72891;SDS011;61032;50.782;6.818;2022-08-14T02:39:19;5.80;;;3.65;;
72891;SDS011;61032;50.782;6.818;2022-08-14T02:40:19;5.25;;;3.60;;
72891;SDS011;61032;50.782;6.818;2022-08-14T02:41:20;5.43;;;3.33;;
72891;SDS011;61032;50.782;6.818;2022-08-14T02:42:22;5.50;;;3.78;;
72891;SDS011;61032;50.782;6.818;2022-08-14T02:44:30;4.22;;;3.70;;
72891;SDS011;61032;50.782;6.818;2022-08-14T02:45:30;5.57;;;4.07;;
72891;SDS011;61032;50.782;6.818;2022-08-14T02:46:32;5.82;;;3.65;;
72891;SDS011;61032;50.782;6.818;2022-08-14T02:47:32;4.30;;;3.90;;
72891;SDS011;61032;50.782;6.818;2022-08-14T02:48:38;4.75;;;4.10;;
72891;SDS011;61032;50.782;6.818;2022-08-14T02:49:39;4.30;;;3.40;;
72891;SDS011;61032;50.782;6.818;2022-08-14T02:50:40;5.43;;;3.88;;
72891;SDS011;61032;50.782;6.818;2022-08-14T02:51:46;4.90;;;4.10;;
72891;SDS011;61032;50.782;6.818;2022-08-14T02:52:47;4.85;;;4.00;;
72891;SDS011;61032;50.782;6.818;2022-08-14T02:53:47;4.13;;;3.33;;
72891;SDS011;61032;50.782;6.818;2022-08-14T02:54:48;4.18;;;3.58;;
72891;SDS011;61032;50.782;6.818;2022-08-14T02:55:48;4.30;;;3.42;;
72891;SDS011;61032;50.782;6.818;2022-08-14T02:56:49;5.20;;;3.45;;
72891;SDS011;61032;50.782;6.818;2022-08-14T02:57:50;4.45;;;4.05;;
72891;SDS011;61032;50.782;6.818;2022-08-14T02:58:51;4.97;;;3.70;;
72891;SDS011;61032;50.782;6.818;2022-08-14T02:59:53;4.18;;;3.40;;
72891;SDS011;61032;50.782;6.818;2022-08-14T03:00:54;4.53;;;4.07;;
72891;SDS011;61032;50.782;6.818;2022-08-14T03:01:55;4.07;;;3.67;;
72891;SDS011;61032;50.782;6.818;2022-08-14T03:02:56;3.95;;;3.22;;
72891;SDS011;61032;50.782;6.818;2022-08-14T03:03:56;7.28;;;3.63;;
72891;SDS011;61032;50.782;6.818;2022-08-14T03:04:57;5.00;;;3.47;;
72891;SDS011;61032;50.782;6.818;2022-08-14T03:05:58;7.82;;;3.90;;
72891;SDS011;61032;50.782;6.818;2022-08-14T03:06:59;5.75;;;3.60;;
72891;SDS011;61032;50.782;6.818;2022-08-14T03:08:03;4.38;;;3.67;;
72891;SDS011;61032;50.782;6.818;2022-08-14T03:09:05;3.88;;;3.45;;
72891;SDS011;61032;50.782;6.818;2022-08-14T03:10:05;4.75;;;3.83;;
72891;SDS011;61032;50.782;6.818;2022-08-14T03:11:07;4.68;;;3.42;;
72891;SDS011;61032;50.782;6.818;2022-08-14T03:12:10;6.18;;;4.03;;
72891;SDS011;61032;50.782;6.818;2022-08-14T03:13:11;5.07;;;3.25;;
72891;SDS011;61032;50.782;6.818;2022-08-14T03:14:11;6.75;;;4.15;;
72891;SDS011;61032;50.782;6.818;2022-08-14T03:15:12;3.55;;;3.08;;
72891;SDS011;61032;50.782;6.818;2022-08-14T03:16:14;3.95;;;3.50;;
72891;SDS011;61032;50.782;6.818;2022-08-14T03:17:23;4.75;;;3.03;;
72891;SDS011;61032;50.782;6.818;2022-08-14T03:18:26;3.95;;;3.35;;
72891;SDS011;61032;50.782;6.818;2022-08-14T03:19:27;3.95;;;3.55;;
72891;SDS011;61032;50.782;6.818;2022-08-14T03:20:27;6.78;;;3.50;;
72891;SDS011;61032;50.782;6.818;2022-08-14T03:21:29;5.05;;;3.40;;
72891;SDS011;61032;50.782;6.818;2022-08-14T03:22:30;4.90;;;3.97;;
72891;SDS011;61032;50.782;6.818;2022-08-14T03:23:32;4.00;;;3.55;;
72891;SDS011;61032;50.782;6.818;2022-08-14T03:24:33;3.70;;;3.30;;
72891;SDS011;61032;50.782;6.818;2022-08-14T03:25:35;5.05;;;4.55;;
72891;SDS011;61032;50.782;6.818;2022-08-14T03:26:40;4.20;;;3.42;;
72891;SDS011;61032;50.782;6.818;2022-08-14T03:27:41;5.43;;;3.83;;
72891;SDS011;61032;50.782;6.818;2022-08-14T03:28:42;6.82;;;3.83;;
72891;SDS011;61032;50.782;6.818;2022-08-14T03:29:44;5.78;;;3.72;;
72891;SDS011;61032;50.782;6.818;2022-08-14T03:30:44;4.45;;;3.35;;
72891;SDS011;61032;50.782;6.818;2022-08-14T03:31:45;5.97;;;4.45;;
72891;SDS011;61032;50.782;6.818;2022-08-14T03:32:50;4.35;;;3.95;;
72891;SDS011;61032;50.782;6.818;2022-08-14T03:33:50;4.75;;;3.45;;
72891;SDS011;61032;50.782;6.818;2022-08-14T03:34:50;6.03;;;3.45;;
72891;SDS011;61032;50.782;6.818;2022-08-14T03:35:51;4.30;;;3.47;;
72891;SDS011;61032;50.782;6.818;2022-08-14T03:36:51;5.13;;;4.00;;
72891;SDS011;61032;50.782;6.818;2022-08-14T03:37:54;5.78;;;4.07;;
72891;SDS011;61032;50.782;6.818;2022-08-14T03:38:54;3.58;;;3.28;;
72891;SDS011;61032;50.782;6.818;2022-08-14T03:40:57;4.45;;;3.78;;
72891;SDS011;61032;50.782;6.818;2022-08-14T03:41:57;4.22;;;3.75;;
72891;SDS011;61032;50.782;6.818;2022-08-14T03:42:57;4.40;;;4.00;;
72891;SDS011;61032;50.782;6.818;2022-08-14T03:44:00;6.28;;;3.90;;
72891;SDS011;61032;50.782;6.818;2022-08-14T03:45:03;4.35;;;3.95;;
72891;SDS011;61032;50.782;6.818;2022-08-14T03:46:05;5.45;;;3.85;;
72891;SDS011;61032;50.782;6.818;2022-08-14T03:47:06;8.10;;;4.45;;
72891;SDS011;61032;50.782;6.818;2022-08-14T03:48:10;5.18;;;4.13;;
72891;SDS011;61032;50.782;6.818;2022-08-14T03:49:14;6.03;;;4.20;;
72891;SDS011;61032;50.782;6.818;2022-08-14T03:50:19;7.30;;;4.88;;
72891;SDS011;61032;50.782;6.818;2022-08-14T03:51:20;8.07;;;5.18;;
72891;SDS011;61032;50.782;6.818;2022-08-14T03:52:23;5.43;;;4.47;;
72891;SDS011;61032;50.782;6.818;2022-08-14T03:53:23;5.38;;;4.20;;
72891;SDS011;61032;50.782;6.818;2022-08-14T03:54:24;4.95;;;4.47;;
72891;SDS011;61032;50.782;6.818;2022-08-14T03:55:24;7.95;;;4.13;;
72891;SDS011;61032;50.782;6.818;2022-08-14T03:56:25;4.53;;;3.65;;
72891;SDS011;61032;50.782;6.818;2022-08-14T03:57:27;5.05;;;4.00;;
72891;SDS011;61032;50.782;6.818;2022-08-14T03:58:31;5.03;;;4.32;;
72891;SDS011;61032;50.782;6.818;2022-08-14T03:59:31;4.82;;;4.22;;
72891;SDS011;61032;50.782;6.818;2022-08-14T04:00:32;6.57;;;3.97;;
72891;SDS011;61032;50.782;6.818;2022-08-14T04:01:33;4.68;;;4.28;;
72891;SDS011;61032;50.782;6.818;2022-08-14T04:02:34;4.90;;;4.50;;
72891;SDS011;61032;50.782;6.818;2022-08-14T04:03:35;4.75;;;4.28;;
72891;SDS011;61032;50.782;6.818;2022-08-14T04:04:35;4.68;;;3.72;;
72891;SDS011;61032;50.782;6.818;2022-08-14T04:05:37;4.43;;;4.00;;
72891;SDS011;61032;50.782;6.818;2022-08-14T04:06:37;5.45;;;4.05;;
72891;SDS011;61032;50.782;6.818;2022-08-14T04:07:38;6.40;;;4.00;;
72891;SDS011;61032;50.782;6.818;2022-08-14T04:08:39;5.72;;;4.40;;
72891;SDS011;61032;50.782;6.818;2022-08-14T04:09:40;4.72;;;3.88;;
72891;SDS011;61032;50.782;6.818;2022-08-14T04:10:40;4.38;;;3.58;;
72891;SDS011;61032;50.782;6.818;2022-08-14T04:11:40;5.80;;;4.10;;
72891;SDS011;61032;50.782;6.818;2022-08-14T04:12:41;4.20;;;3.80;;
72891;SDS011;61032;50.782;6.818;2022-08-14T04:13:41;6.90;;;4.47;;
72891;SDS011;61032;50.782;6.818;2022-08-14T04:14:42;5.20;;;4.32;;
72891;SDS011;61032;50.782;6.818;2022-08-14T04:15:46;5.28;;;3.88;;
72891;SDS011;61032;50.782;6.818;2022-08-14T04:16:47;5.45;;;4.50;;
72891;SDS011;61032;50.782;6.818;2022-08-14T04:17:48;6.20;;;3.70;;
72891;SDS011;61032;50.782;6.818;2022-08-14T04:18:50;5.13;;;4.43;;
72891;SDS011;61032;50.782;6.818;2022-08-14T04:19:52;5.65;;;4.90;;
72891;SDS011;61032;50.782;6.818;2022-08-14T04:20:52;6.25;;;4.47;;
72891;SDS011;61032;50.782;6.818;2022-08-14T04:21:52;7.43;;;3.95;;
72891;SDS011;61032;50.782;6.818;2022-08-14T04:22:53;5.85;;;4.22;;
72891;SDS011;61032;50.782;6.818;2022-08-14T04:23:54;5.88;;;4.97;;
72891;SDS011;61032;50.782;6.818;2022-08-14T04:24:57;5.03;;;4.00;;
72891;SDS011;61032;50.782;6.818;2022-08-14T04:26:09;5.68;;;4.70;;
72891;SDS011;61032;50.782;6.818;2022-08-14T04:27:11;5.30;;;4.63;;
72891;SDS011;61032;50.782;6.818;2022-08-14T04:28:12;7.20;;;4.68;;
72891;SDS011;61032;50.782;6.818;2022-08-14T04:29:14;5.15;;;4.30;;
72891;SDS011;61032;50.782;6.818;2022-08-14T04:30:14;5.65;;;4.75;;
72891;SDS011;61032;50.782;6.818;2022-08-14T04:31:16;5.30;;;4.13;;
72891;SDS011;61032;50.782;6.818;2022-08-14T04:32:18;5.80;;;4.50;;
72891;SDS011;61032;50.782;6.818;2022-08-14T04:33:21;5.25;;;4.70;;
72891;SDS011;61032;50.782;6.818;2022-08-14T04:34:23;5.53;;;4.38;;
72891;SDS011;61032;50.782;6.818;2022-08-14T04:35:23;4.90;;;4.10;;
72891;SDS011;61032;50.782;6.818;2022-08-14T04:36:24;5.25;;;4.75;;
72891;SDS011;61032;50.782;6.818;2022-08-14T04:37:24;5.60;;;4.47;;
72891;SDS011;61032;50.782;6.818;2022-08-14T04:38:43;4.88;;;4.47;;
72891;SDS011;61032;50.782;6.818;2022-08-14T04:40:02;7.32;;;4.82;;
72891;SDS011;61032;50.782;6.818;2022-08-14T04:41:21;6.05;;;4.22;;
72891;SDS011;61032;50.782;6.818;2022-08-14T04:42:40;5.05;;;4.53;;
72891;SDS011;61032;50.782;6.818;2022-08-14T04:43:59;5.85;;;5.28;;
72891;SDS011;61032;50.782;6.818;2022-08-14T04:45:00;5.50;;;4.85;;
72891;SDS011;61032;50.782;6.818;2022-08-14T04:46:00;5.82;;;4.90;;
72891;SDS011;61032;50.782;6.818;2022-08-14T04:47:04;5.78;;;4.32;;
72891;SDS011;61032;50.782;6.818;2022-08-14T04:48:22;5.20;;;4.70;;
72891;SDS011;61032;50.782;6.818;2022-08-14T04:49:26;5.32;;;4.75;;
72891;SDS011;61032;50.782;6.818;2022-08-14T04:50:27;8.13;;;5.28;;
72891;SDS011;61032;50.782;6.818;2022-08-14T04:51:28;5.63;;;5.03;;
72891;SDS011;61032;50.782;6.818;2022-08-14T04:52:28;5.50;;;4.97;;
72891;SDS011;61032;50.782;6.818;2022-08-14T04:53:30;5.28;;;4.75;;
72891;SDS011;61032;50.782;6.818;2022-08-14T04:54:32;5.63;;;4.28;;
72891;SDS011;61032;50.782;6.818;2022-08-14T04:55:32;6.25;;;4.45;;
72891;SDS011;61032;50.782;6.818;2022-08-14T04:56:32;7.50;;;6.00;;
72891;SDS011;61032;50.782;6.818;2022-08-14T04:57:33;6.72;;;4.30;;
72891;SDS011;61032;50.782;6.818;2022-08-14T04:58:33;6.97;;;5.18;;
72891;SDS011;61032;50.782;6.818;2022-08-14T04:59:34;6.25;;;4.55;;
72891;SDS011;61032;50.782;6.818;2022-08-14T05:00:35;6.32;;;4.72;;
72891;SDS011;61032;50.782;6.818;2022-08-14T05:01:35;6.00;;;5.18;;
72891;SDS011;61032;50.782;6.818;2022-08-14T05:02:36;4.75;;;4.30;;
72891;SDS011;61032;50.782;6.818;2022-08-14T05:03:36;5.95;;;5.07;;
72891;SDS011;61032;50.782;6.818;2022-08-14T05:04:37;6.95;;;4.63;;
72891;SDS011;61032;50.782;6.818;2022-08-14T05:05:38;7.43;;;5.70;;
72891;SDS011;61032;50.782;6.818;2022-08-14T05:06:38;5.50;;;4.82;;
72891;SDS011;61032;50.782;6.818;2022-08-14T05:07:39;6.63;;;4.60;;
72891;SDS011;61032;50.782;6.818;2022-08-14T05:08:41;6.70;;;4.13;;
72891;SDS011;61032;50.782;6.818;2022-08-14T05:09:42;6.25;;;5.00;;
72891;SDS011;61032;50.782;6.818;2022-08-14T05:10:43;9.32;;;5.20;;
72891;SDS011;61032;50.782;6.818;2022-08-14T05:11:46;6.30;;;5.10;;
72891;SDS011;61032;50.782;6.818;2022-08-14T05:12:47;5.47;;;4.97;;
72891;SDS011;61032;50.782;6.818;2022-08-14T05:13:47;5.47;;;4.22;;
72891;SDS011;61032;50.782;6.818;2022-08-14T05:14:48;5.80;;;4.88;;
72891;SDS011;61032;50.782;6.818;2022-08-14T05:15:49;5.65;;;4.40;;
72891;SDS011;61032;50.782;6.818;2022-08-14T05:16:51;6.57;;;5.18;;
72891;SDS011;61032;50.782;6.818;2022-08-14T05:17:52;7.50;;;4.80;;
72891;SDS011;61032;50.782;6.818;2022-08-14T05:18:52;5.70;;;4.15;;
72891;SDS011;61032;50.782;6.818;2022-08-14T05:19:52;6.38;;;4.55;;
72891;SDS011;61032;50.782;6.818;2022-08-14T05:20:54;8.18;;;4.97;;
72891;SDS011;61032;50.782;6.818;2022-08-14T05:21:55;4.68;;;4.13;;
72891;SDS011;61032;50.782;6.818;2022-08-14T05:22:58;4.82;;;4.30;;
72891;SDS011;61032;50.782;6.818;2022-08-14T05:23:59;7.43;;;4.65;;
72891;SDS011;61032;50.782;6.818;2022-08-14T05:24:59;5.38;;;4.38;;
72891;SDS011;61032;50.782;6.818;2022-08-14T05:26:01;5.35;;;4.85;;
72891;SDS011;61032;50.782;6.818;2022-08-14T05:27:02;6.75;;;5.10;;
72891;SDS011;61032;50.782;6.818;2022-08-14T05:28:12;6.22;;;4.40;;
72891;SDS011;61032;50.782;6.818;2022-08-14T05:29:20;8.57;;;4.30;;
72891;SDS011;61032;50.782;6.818;2022-08-14T05:30:21;9.18;;;4.07;;
72891;SDS011;61032;50.782;6.818;2022-08-14T05:31:22;5.35;;;4.85;;
72891;SDS011;61032;50.782;6.818;2022-08-14T05:32:23;5.15;;;4.20;;
72891;SDS011;61032;50.782;6.818;2022-08-14T05:33:25;7.35;;;5.10;;
72891;SDS011;61032;50.782;6.818;2022-08-14T05:34:27;7.03;;;4.50;;
72891;SDS011;61032;50.782;6.818;2022-08-14T05:35:29;7.55;;;4.30;;
72891;SDS011;61032;50.782;6.818;2022-08-14T05:36:31;6.82;;;5.10;;
72891;SDS011;61032;50.782;6.818;2022-08-14T05:37:32;6.93;;;3.92;;
72891;SDS011;61032;50.782;6.818;2022-08-14T05:38:33;4.75;;;4.22;;
72891;SDS011;61032;50.782;6.818;2022-08-14T05:39:35;5.45;;;4.90;;
72891;SDS011;61032;50.782;6.818;2022-08-14T05:40:38;5.25;;;4.60;;
72891;SDS011;61032;50.782;6.818;2022-08-14T05:41:40;5.63;;;5.03;;
72891;SDS011;61032;50.782;6.818;2022-08-14T05:42:41;5.60;;;5.10;;
72891;SDS011;61032;50.782;6.818;2022-08-14T05:43:41;5.90;;;3.97;;
72891;SDS011;61032;50.782;6.818;2022-08-14T05:44:43;5.38;;;4.05;;
72891;SDS011;61032;50.782;6.818;2022-08-14T05:45:43;5.57;;;5.00;;
72891;SDS011;61032;50.782;6.818;2022-08-14T05:46:44;5.10;;;4.60;;
72891;SDS011;61032;50.782;6.818;2022-08-14T05:47:44;7.10;;;4.13;;
72891;SDS011;61032;50.782;6.818;2022-08-14T05:48:47;6.43;;;4.45;;
72891;SDS011;61032;50.782;6.818;2022-08-14T05:49:52;7.40;;;4.82;;
72891;SDS011;61032;50.782;6.818;2022-08-14T05:50:53;4.47;;;4.03;;
72891;SDS011;61032;50.782;6.818;2022-08-14T05:51:54;4.72;;;4.22;;
72891;SDS011;61032;50.782;6.818;2022-08-14T05:52:54;4.97;;;4.10;;
72891;SDS011;61032;50.782;6.818;2022-08-14T05:53:55;27.92;;;6.13;;
72891;SDS011;61032;50.782;6.818;2022-08-14T05:54:55;7.45;;;4.03;;
72891;SDS011;61032;50.782;6.818;2022-08-14T05:55:57;8.15;;;4.20;;
72891;SDS011;61032;50.782;6.818;2022-08-14T05:56:58;6.25;;;4.05;;
72891;SDS011;61032;50.782;6.818;2022-08-14T05:57:59;4.78;;;3.83;;
72891;SDS011;61032;50.782;6.818;2022-08-14T05:59:07;5.60;;;3.90;;
72891;SDS011;61032;50.782;6.818;2022-08-14T06:00:07;4.47;;;3.70;;
72891;SDS011;61032;50.782;6.818;2022-08-14T06:01:08;7.53;;;5.00;;
72891;SDS011;61032;50.782;6.818;2022-08-14T06:02:10;8.63;;;4.45;;
72891;SDS011;61032;50.782;6.818;2022-08-14T06:03:11;18.75;;;4.40;;
72891;SDS011;61032;50.782;6.818;2022-08-14T06:04:17;5.38;;;4.55;;
72891;SDS011;61032;50.782;6.818;2022-08-14T06:05:17;5.82;;;4.30;;
72891;SDS011;61032;50.782;6.818;2022-08-14T06:06:18;6.20;;;4.90;;
72891;SDS011;61032;50.782;6.818;2022-08-14T06:07:18;11.13;;;5.03;;
72891;SDS011;61032;50.782;6.818;2022-08-14T06:08:19;5.80;;;4.90;;
72891;SDS011;61032;50.782;6.818;2022-08-14T06:09:25;5.03;;;4.53;;
72891;SDS011;61032;50.782;6.818;2022-08-14T06:10:26;5.03;;;4.00;;
72891;SDS011;61032;50.782;6.818;2022-08-14T06:11:28;10.60;;;4.45;;
72891;SDS011;61032;50.782;6.818;2022-08-14T06:12:28;7.45;;;5.38;;
72891;SDS011;61032;50.782;6.818;2022-08-14T06:13:29;5.20;;;4.28;;
72891;SDS011;61032;50.782;6.818;2022-08-14T06:14:30;6.00;;;4.93;;
72891;SDS011;61032;50.782;6.818;2022-08-14T06:15:30;6.72;;;4.38;;
72891;SDS011;61032;50.782;6.818;2022-08-14T06:16:30;9.35;;;5.10;;
72891;SDS011;61032;50.782;6.818;2022-08-14T06:17:31;7.07;;;4.53;;